sensor_id;sensor_type;location;lat;lon;timestamp;P1;durP1;ratioP1;P2;durP2;ratioP2
40753;SDS011;26460;42.732;-84.532;2024-03-22T00:02:14;2.03;;;0.60;;
40753;SDS011;26460;42.732;-84.532;2024-03-22T00:04:41;0.68;;;0.68;;
40753;SDS011;26460;42.732;-84.532;2024-03-22T00:07:07;3.72;;;1.00;;
40753;SDS011;26460;42.732;-84.532;2024-03-22T00:09:34;6.25;;;3.17;;
40753;SDS011;26460;42.732;-84.532;2024-03-22T00:12:01;10.50;;;4.05;;
40753;SDS011;26460;42.732;-84.532;2024-03-22T00:14:27;14.65;;;6.50;;
40753;SDS011;26460;42.732;-84.532;2024-03-22T00:16:54;19.20;;;8.07;;
40753;SDS011;26460;42.732;-84.532;2024-03-22T00:19:20;21.00;;;10.85;;
40753;SDS011;26460;42.732;-84.532;2024-03-22T00:21:47;21.75;;;11.45;;
40753;SDS011;26460;42.732;-84.532;2024-03-22T00:24:14;21.60;;;11.48;;
40753;SDS011;26460;42.732;-84.532;2024-03-22T00:26:40;23.75;;;11.93;;
40753;SDS011;26460;42.732;-84.532;2024-03-22T00:29:07;26.88;;;12.43;;
40753;SDS011;26460;42.732;-84.532;2024-03-22T00:31:33;21.58;;;11.73;;
40753;SDS011;26460;42.732;-84.532;2024-03-22T00:34:00;21.45;;;11.02;;
40753;SDS011;26460;42.732;-84.532;2024-03-22T00:36:26;19.67;;;10.77;;
40753;SDS011;26460;42.732;-84.532;2024-03-22T00:38:53;20.30;;;11.82;;
40753;SDS011;26460;42.732;-84.532;2024-03-22T00:41:19;18.88;;;10.02;;
40753;SDS011;26460;42.732;-84.532;2024-03-22T00:43:46;19.13;;;10.10;;
40753;SDS011;26460;42.732;-84.532;2024-03-22T00:46:12;16.85;;;8.95;;
40753;SDS011;26460;42.732;-84.532;2024-03-22T00:48:39;14.25;;;8.02;;
40753;SDS011;26460;42.732;-84.532;2024-03-22T00:51:05;14.45;;;8.30;;
40753;SDS011;26460;42.732;-84.532;2024-03-22T00:53:32;15.15;;;8.32;;
40753;SDS011;26460;42.732;-84.532;2024-03-22T00:55:59;14.23;;;7.43;;
40753;SDS011;26460;42.732;-84.532;2024-03-22T00:58:26;14.52;;;7.47;;
40753;SDS011;26460;42.732;-84.532;2024-03-22T01:00:54;11.55;;;6.63;;
40753;SDS011;26460;42.732;-84.532;2024-03-22T01:03:21;9.73;;;6.00;;
40753;SDS011;26460;42.732;-84.532;2024-03-22T01:05:48;10.95;;;6.07;;
40753;SDS011;26460;42.732;-84.532;2024-03-22T01:08:14;10.52;;;5.63;;
40753;SDS011;26460;42.732;-84.532;2024-03-22T01:10:41;9.18;;;5.60;;
40753;SDS011;26460;42.732;-84.532;2024-03-22T01:13:07;10.02;;;4.82;;
40753;SDS011;26460;42.732;-84.532;2024-03-22T01:15:34;7.85;;;4.90;;
40753;SDS011;26460;42.732;-84.532;2024-03-22T01:18:01;8.45;;;5.13;;
40753;SDS011;26460;42.732;-84.532;2024-03-22T01:20:28;7.53;;;4.22;;
40753;SDS011;26460;42.732;-84.532;2024-03-22T01:22:54;7.57;;;4.57;;
40753;SDS011;26460;42.732;-84.532;2024-03-22T01:25:21;7.22;;;4.25;;
40753;SDS011;26460;42.732;-84.532;2024-03-22T01:27:48;5.97;;;3.75;;
40753;SDS011;26460;42.732;-84.532;2024-03-22T01:30:14;6.47;;;4.15;;
40753;SDS011;26460;42.732;-84.532;2024-03-22T01:32:41;6.82;;;3.70;;
40753;SDS011;26460;42.732;-84.532;2024-03-22T01:35:07;6.00;;;3.70;;
40753;SDS011;26460;42.732;-84.532;2024-03-22T01:37:34;5.43;;;3.42;;
40753;SDS011;26460;42.732;-84.532;2024-03-22T01:40:02;4.78;;;3.25;;
40753;SDS011;26460;42.732;-84.532;2024-03-22T01:42:30;4.65;;;3.00;;
40753;SDS011;26460;42.732;-84.532;2024-03-22T01:44:57;4.60;;;3.08;;
40753;SDS011;26460;42.732;-84.532;2024-03-22T01:47:23;3.80;;;2.63;;
40753;SDS011;26460;42.732;-84.532;2024-03-22T01:49:50;3.38;;;2.38;;
40753;SDS011;26460;42.732;-84.532;2024-03-22T01:52:21;4.80;;;3.05;;
40753;SDS011;26460;42.732;-84.532;2024-03-22T01:54:49;4.88;;;2.53;;
40753;SDS011;26460;42.732;-84.532;2024-03-22T01:57:15;4.05;;;2.55;;
40753;SDS011;26460;42.732;-84.532;2024-03-22T01:59:42;4.43;;;2.53;;
40753;SDS011;26460;42.732;-84.532;2024-03-22T02:02:09;4.75;;;2.50;;
40753;SDS011;26460;42.732;-84.532;2024-03-22T02:04:37;5.88;;;2.53;;
40753;SDS011;26460;42.732;-84.532;2024-03-22T02:07:03;3.50;;;2.25;;
40753;SDS011;26460;42.732;-84.532;2024-03-22T02:09:30;3.50;;;2.17;;
40753;SDS011;26460;42.732;-84.532;2024-03-22T02:11:56;3.28;;;2.00;;
40753;SDS011;26460;42.732;-84.532;2024-03-22T02:14:23;3.00;;;1.90;;
40753;SDS011;26460;42.732;-84.532;2024-03-22T02:16:51;3.30;;;2.00;;
40753;SDS011;26460;42.732;-84.532;2024-03-22T02:19:17;2.85;;;1.92;;
40753;SDS011;26460;42.732;-84.532;2024-03-22T02:21:44;3.90;;;2.40;;
40753;SDS011;26460;42.732;-84.532;2024-03-22T02:24:10;3.35;;;1.83;;
40753;SDS011;26460;42.732;-84.532;2024-03-22T02:26:37;2.90;;;1.92;;
40753;SDS011;26460;42.732;-84.532;2024-03-22T02:29:04;3.20;;;1.90;;
40753;SDS011;26460;42.732;-84.532;2024-03-22T02:31:30;3.97;;;2.17;;
40753;SDS011;26460;42.732;-84.532;2024-03-22T02:33:58;2.55;;;1.90;;
40753;SDS011;26460;42.732;-84.532;2024-03-22T02:36:26;2.65;;;2.10;;
40753;SDS011;26460;42.732;-84.532;2024-03-22T02:38:52;2.83;;;1.70;;
40753;SDS011;26460;42.732;-84.532;2024-03-22T02:41:20;2.00;;;1.55;;
40753;SDS011;26460;42.732;-84.532;2024-03-22T02:43:47;2.75;;;1.70;;
40753;SDS011;26460;42.732;-84.532;2024-03-22T02:46:13;2.75;;;1.77;;
40753;SDS011;26460;42.732;-84.532;2024-03-22T02:48:40;1.85;;;1.45;;
40753;SDS011;26460;42.732;-84.532;2024-03-22T02:51:06;2.63;;;1.50;;
40753;SDS011;26460;42.732;-84.532;2024-03-22T02:53:33;2.35;;;1.75;;
40753;SDS011;26460;42.732;-84.532;2024-03-22T02:56:00;3.65;;;1.88;;
40753;SDS011;26460;42.732;-84.532;2024-03-22T02:58:26;2.67;;;1.83;;
40753;SDS011;26460;42.732;-84.532;2024-03-22T03:00:53;2.00;;;1.63;;
40753;SDS011;26460;42.732;-84.532;2024-03-22T03:03:20;1.95;;;1.23;;
40753;SDS011;26460;42.732;-84.532;2024-03-22T03:05:46;3.33;;;1.60;;
40753;SDS011;26460;42.732;-84.532;2024-03-22T03:08:13;3.33;;;1.75;;
40753;SDS011;26460;42.732;-84.532;2024-03-22T03:10:39;3.35;;;1.98;;
40753;SDS011;26460;42.732;-84.532;2024-03-22T03:13:06;3.33;;;2.55;;
40753;SDS011;26460;42.732;-84.532;2024-03-22T03:15:32;6.95;;;3.60;;
40753;SDS011;26460;42.732;-84.532;2024-03-22T03:17:59;7.45;;;3.95;;
40753;SDS011;26460;42.732;-84.532;2024-03-22T03:20:25;8.88;;;4.88;;
40753;SDS011;26460;42.732;-84.532;2024-03-22T03:22:52;8.82;;;5.35;;
40753;SDS011;26460;42.732;-84.532;2024-03-22T03:25:19;10.57;;;5.93;;
40753;SDS011;26460;42.732;-84.532;2024-03-22T03:27:45;13.35;;;7.60;;
40753;SDS011;26460;42.732;-84.532;2024-03-22T03:30:12;13.23;;;7.88;;
40753;SDS011;26460;42.732;-84.532;2024-03-22T03:32:38;14.32;;;8.30;;
40753;SDS011;26460;42.732;-84.532;2024-03-22T03:35:05;16.83;;;9.35;;
40753;SDS011;26460;42.732;-84.532;2024-03-22T03:37:31;13.57;;;8.57;;
40753;SDS011;26460;42.732;-84.532;2024-03-22T03:39:58;15.73;;;9.15;;
40753;SDS011;26460;42.732;-84.532;2024-03-22T03:42:25;14.02;;;8.45;;
40753;SDS011;26460;42.732;-84.532;2024-03-22T03:44:51;14.00;;;9.02;;
40753;SDS011;26460;42.732;-84.532;2024-03-22T03:47:18;13.45;;;8.43;;
40753;SDS011;26460;42.732;-84.532;2024-03-22T03:49:45;14.07;;;8.75;;
40753;SDS011;26460;42.732;-84.532;2024-03-22T03:52:12;13.35;;;8.55;;
40753;SDS011;26460;42.732;-84.532;2024-03-22T03:54:38;14.02;;;8.48;;
40753;SDS011;26460;42.732;-84.532;2024-03-22T03:57:05;12.40;;;7.45;;
40753;SDS011;26460;42.732;-84.532;2024-03-22T03:59:31;12.82;;;7.53;;
40753;SDS011;26460;42.732;-84.532;2024-03-22T04:01:58;12.10;;;7.15;;
40753;SDS011;26460;42.732;-84.532;2024-03-22T04:04:25;11.02;;;6.57;;
40753;SDS011;26460;42.732;-84.532;2024-03-22T04:06:51;10.70;;;6.30;;
40753;SDS011;26460;42.732;-84.532;2024-03-22T04:09:18;8.50;;;5.55;;
40753;SDS011;26460;42.732;-84.532;2024-03-22T04:11:44;10.10;;;6.13;;
40753;SDS011;26460;42.732;-84.532;2024-03-22T04:14:11;7.68;;;5.28;;
40753;SDS011;26460;42.732;-84.532;2024-03-22T04:16:37;7.88;;;5.13;;
40753;SDS011;26460;42.732;-84.532;2024-03-22T04:19:04;7.50;;;4.85;;
40753;SDS011;26460;42.732;-84.532;2024-03-22T04:21:30;8.43;;;5.07;;
40753;SDS011;26460;42.732;-84.532;2024-03-22T04:23:57;7.72;;;4.35;;
40753;SDS011;26460;42.732;-84.532;2024-03-22T04:26:23;5.78;;;3.85;;
40753;SDS011;26460;42.732;-84.532;2024-03-22T04:28:50;6.13;;;3.85;;
40753;SDS011;26460;42.732;-84.532;2024-03-22T04:31:16;6.50;;;3.83;;
40753;SDS011;26460;42.732;-84.532;2024-03-22T04:33:43;6.95;;;3.60;;
40753;SDS011;26460;42.732;-84.532;2024-03-22T04:36:10;5.55;;;3.60;;
40753;SDS011;26460;42.732;-84.532;2024-03-22T04:38:36;6.88;;;3.75;;
40753;SDS011;26460;42.732;-84.532;2024-03-22T04:41:03;4.45;;;3.05;;
40753;SDS011;26460;42.732;-84.532;2024-03-22T04:43:29;5.13;;;3.10;;
40753;SDS011;26460;42.732;-84.532;2024-03-22T04:45:56;3.92;;;2.50;;
40753;SDS011;26460;42.732;-84.532;2024-03-22T04:48:23;4.95;;;2.97;;
40753;SDS011;26460;42.732;-84.532;2024-03-22T04:50:50;4.00;;;2.50;;
40753;SDS011;26460;42.732;-84.532;2024-03-22T04:53:17;3.95;;;2.67;;
40753;SDS011;26460;42.732;-84.532;2024-03-22T04:55:46;4.00;;;2.50;;
40753;SDS011;26460;42.732;-84.532;2024-03-22T04:58:14;3.92;;;2.35;;
40753;SDS011;26460;42.732;-84.532;2024-03-22T05:00:42;3.40;;;2.50;;
40753;SDS011;26460;42.732;-84.532;2024-03-22T05:03:09;2.72;;;2.15;;
40753;SDS011;26460;42.732;-84.532;2024-03-22T05:05:35;4.47;;;2.00;;
40753;SDS011;26460;42.732;-84.532;2024-03-22T05:08:03;6.28;;;2.15;;
40753;SDS011;26460;42.732;-84.532;2024-03-22T05:10:30;2.92;;;2.13;;
40753;SDS011;26460;42.732;-84.532;2024-03-22T05:12:57;5.32;;;2.35;;
40753;SDS011;26460;42.732;-84.532;2024-03-22T05:15:24;4.13;;;1.90;;
40753;SDS011;26460;42.732;-84.532;2024-03-22T05:17:55;3.00;;;2.05;;
40753;SDS011;26460;42.732;-84.532;2024-03-22T05:20:22;3.30;;;1.83;;
40753;SDS011;26460;42.732;-84.532;2024-03-22T05:22:49;2.10;;;1.58;;
40753;SDS011;26460;42.732;-84.532;2024-03-22T05:25:16;2.72;;;1.60;;
40753;SDS011;26460;42.732;-84.532;2024-03-22T05:27:43;1.85;;;1.42;;
40753;SDS011;26460;42.732;-84.532;2024-03-22T05:30:11;1.92;;;1.40;;
40753;SDS011;26460;42.732;-84.532;2024-03-22T05:32:39;2.50;;;1.73;;
40753;SDS011;26460;42.732;-84.532;2024-03-22T05:35:08;1.98;;;1.40;;
40753;SDS011;26460;42.732;-84.532;2024-03-22T05:37:35;1.90;;;1.42;;
40753;SDS011;26460;42.732;-84.532;2024-03-22T05:40:02;1.63;;;1.42;;
40753;SDS011;26460;42.732;-84.532;2024-03-22T05:42:32;2.13;;;1.48;;
40753;SDS011;26460;42.732;-84.532;2024-03-22T05:44:58;1.38;;;1.15;;
40753;SDS011;26460;42.732;-84.532;2024-03-22T05:47:25;1.63;;;1.40;;
40753;SDS011;26460;42.732;-84.532;2024-03-22T05:49:52;1.67;;;1.20;;
40753;SDS011;26460;42.732;-84.532;2024-03-22T05:52:18;2.10;;;1.17;;
40753;SDS011;26460;42.732;-84.532;2024-03-22T05:54:45;1.55;;;1.27;;
40753;SDS011;26460;42.732;-84.532;2024-03-22T05:57:12;1.92;;;1.48;;
40753;SDS011;26460;42.732;-84.532;2024-03-22T05:59:39;1.77;;;1.30;;
40753;SDS011;26460;42.732;-84.532;2024-03-22T06:02:05;1.48;;;1.33;;
40753;SDS011;26460;42.732;-84.532;2024-03-22T06:04:32;1.90;;;1.38;;
40753;SDS011;26460;42.732;-84.532;2024-03-22T06:07:00;3.47;;;1.30;;
40753;SDS011;26460;42.732;-84.532;2024-03-22T06:09:29;1.40;;;1.30;;
40753;SDS011;26460;42.732;-84.532;2024-03-22T06:12:17;1.33;;;1.10;;
40753;SDS011;26460;42.732;-84.532;2024-03-22T06:14:44;1.33;;;1.13;;
40753;SDS011;26460;42.732;-84.532;2024-03-22T06:17:13;1.30;;;1.10;;
40753;SDS011;26460;42.732;-84.532;2024-03-22T06:19:41;1.50;;;1.10;;
40753;SDS011;26460;42.732;-84.532;2024-03-22T06:22:08;1.90;;;1.20;;
40753;SDS011;26460;42.732;-84.532;2024-03-22T06:24:34;2.53;;;1.17;;
40753;SDS011;26460;42.732;-84.532;2024-03-22T06:27:01;1.25;;;1.10;;
40753;SDS011;26460;42.732;-84.532;2024-03-22T06:29:28;1.10;;;1.00;;
40753;SDS011;26460;42.732;-84.532;2024-03-22T06:31:55;1.42;;;1.17;;
40753;SDS011;26460;42.732;-84.532;2024-03-22T06:34:21;1.55;;;1.20;;
40753;SDS011;26460;42.732;-84.532;2024-03-22T06:36:48;1.50;;;1.13;;
40753;SDS011;26460;42.732;-84.532;2024-03-22T06:39:16;1.25;;;1.08;;
40753;SDS011;26460;42.732;-84.532;2024-03-22T06:41:42;1.20;;;1.00;;
40753;SDS011;26460;42.732;-84.532;2024-03-22T06:44:09;1.33;;;1.00;;
40753;SDS011;26460;42.732;-84.532;2024-03-22T06:46:37;1.23;;;0.97;;
40753;SDS011;26460;42.732;-84.532;2024-03-22T06:49:05;1.48;;;1.10;;
40753;SDS011;26460;42.732;-84.532;2024-03-22T06:51:32;1.10;;;0.80;;
40753;SDS011;26460;42.732;-84.532;2024-03-22T06:53:58;1.30;;;1.00;;
40753;SDS011;26460;42.732;-84.532;2024-03-22T06:56:25;2.20;;;1.13;;
40753;SDS011;26460;42.732;-84.532;2024-03-22T06:58:51;1.52;;;1.00;;
40753;SDS011;26460;42.732;-84.532;2024-03-22T07:01:18;1.10;;;0.85;;
40753;SDS011;26460;42.732;-84.532;2024-03-22T07:03:46;1.27;;;1.00;;
40753;SDS011;26460;42.732;-84.532;2024-03-22T07:06:14;1.40;;;0.93;;
40753;SDS011;26460;42.732;-84.532;2024-03-22T07:08:40;1.20;;;1.00;;
40753;SDS011;26460;42.732;-84.532;2024-03-22T07:11:07;1.95;;;1.00;;
40753;SDS011;26460;42.732;-84.532;2024-03-22T07:13:34;1.45;;;1.13;;
40753;SDS011;26460;42.732;-84.532;2024-03-22T07:16:01;1.75;;;1.02;;
40753;SDS011;26460;42.732;-84.532;2024-03-22T07:18:29;0.65;;;0.65;;
40753;SDS011;26460;42.732;-84.532;2024-03-22T07:20:55;0.85;;;0.80;;
40753;SDS011;26460;42.732;-84.532;2024-03-22T07:23:24;1.60;;;0.90;;
40753;SDS011;26460;42.732;-84.532;2024-03-22T07:25:50;0.93;;;0.88;;
40753;SDS011;26460;42.732;-84.532;2024-03-22T07:28:17;1.65;;;1.05;;
40753;SDS011;26460;42.732;-84.532;2024-03-22T07:30:43;1.77;;;0.90;;
40753;SDS011;26460;42.732;-84.532;2024-03-22T07:33:10;1.48;;;1.08;;
40753;SDS011;26460;42.732;-84.532;2024-03-22T07:35:42;1.75;;;1.00;;
40753;SDS011;26460;42.732;-84.532;2024-03-22T07:38:08;1.10;;;0.98;;
40753;SDS011;26460;42.732;-84.532;2024-03-22T07:40:35;1.50;;;0.90;;
40753;SDS011;26460;42.732;-84.532;2024-03-22T07:43:02;1.17;;;1.00;;
40753;SDS011;26460;42.732;-84.532;2024-03-22T07:45:32;0.80;;;0.80;;
40753;SDS011;26460;42.732;-84.532;2024-03-22T07:48:00;1.23;;;1.02;;
40753;SDS011;26460;42.732;-84.532;2024-03-22T07:50:27;0.90;;;0.80;;
40753;SDS011;26460;42.732;-84.532;2024-03-22T07:52:53;0.93;;;0.80;;
40753;SDS011;26460;42.732;-84.532;2024-03-22T07:55:20;0.88;;;0.75;;
40753;SDS011;26460;42.732;-84.532;2024-03-22T07:57:47;1.05;;;0.88;;
40753;SDS011;26460;42.732;-84.532;2024-03-22T08:00:14;1.52;;;1.00;;
40753;SDS011;26460;42.732;-84.532;2024-03-22T08:02:41;1.35;;;0.85;;
40753;SDS011;26460;42.732;-84.532;2024-03-22T08:05:08;0.73;;;0.70;;
40753;SDS011;26460;42.732;-84.532;2024-03-22T08:07:35;1.13;;;0.88;;
40753;SDS011;26460;42.732;-84.532;2024-03-22T08:10:01;1.42;;;0.90;;
40753;SDS011;26460;42.732;-84.532;2024-03-22T08:12:30;0.77;;;0.77;;
40753;SDS011;26460;42.732;-84.532;2024-03-22T08:14:56;0.82;;;0.80;;
40753;SDS011;26460;42.732;-84.532;2024-03-22T08:17:23;1.75;;;1.00;;
40753;SDS011;26460;42.732;-84.532;2024-03-22T08:19:49;1.17;;;1.08;;
40753;SDS011;26460;42.732;-84.532;2024-03-22T08:22:16;2.38;;;1.10;;
40753;SDS011;26460;42.732;-84.532;2024-03-22T08:24:42;0.95;;;0.85;;
40753;SDS011;26460;42.732;-84.532;2024-03-22T08:27:09;2.10;;;1.13;;
40753;SDS011;26460;42.732;-84.532;2024-03-22T08:29:35;1.25;;;1.08;;
40753;SDS011;26460;42.732;-84.532;2024-03-22T08:32:03;0.70;;;0.70;;
40753;SDS011;26460;42.732;-84.532;2024-03-22T08:34:30;1.30;;;1.00;;
40753;SDS011;26460;42.732;-84.532;2024-03-22T08:36:58;1.60;;;1.00;;
40753;SDS011;26460;42.732;-84.532;2024-03-22T08:39:24;0.80;;;0.77;;
40753;SDS011;26460;42.732;-84.532;2024-03-22T08:41:51;2.47;;;0.80;;
40753;SDS011;26460;42.732;-84.532;2024-03-22T08:44:18;2.33;;;0.80;;
40753;SDS011;26460;42.732;-84.532;2024-03-22T08:46:44;2.00;;;1.00;;
40753;SDS011;26460;42.732;-84.532;2024-03-22T08:49:11;1.00;;;0.90;;
40753;SDS011;26460;42.732;-84.532;2024-03-22T08:51:38;1.17;;;0.98;;
40753;SDS011;26460;42.732;-84.532;2024-03-22T08:54:05;1.05;;;0.80;;
40753;SDS011;26460;42.732;-84.532;2024-03-22T08:56:31;0.70;;;0.70;;
40753;SDS011;26460;42.732;-84.532;2024-03-22T08:58:58;1.55;;;0.93;;
40753;SDS011;26460;42.732;-84.532;2024-03-22T09:01:25;0.70;;;0.70;;
40753;SDS011;26460;42.732;-84.532;2024-03-22T09:03:52;1.33;;;1.05;;
40753;SDS011;26460;42.732;-84.532;2024-03-22T09:06:19;1.15;;;1.00;;
40753;SDS011;26460;42.732;-84.532;2024-03-22T09:08:45;0.75;;;0.75;;
40753;SDS011;26460;42.732;-84.532;2024-03-22T09:11:12;2.30;;;0.90;;
40753;SDS011;26460;42.732;-84.532;2024-03-22T09:13:38;2.08;;;0.80;;
40753;SDS011;26460;42.732;-84.532;2024-03-22T09:16:05;1.25;;;0.90;;
40753;SDS011;26460;42.732;-84.532;2024-03-22T09:18:32;1.10;;;0.80;;
40753;SDS011;26460;42.732;-84.532;2024-03-22T09:20:59;1.00;;;0.70;;
40753;SDS011;26460;42.732;-84.532;2024-03-22T09:23:25;1.88;;;0.98;;
40753;SDS011;26460;42.732;-84.532;2024-03-22T09:25:52;0.95;;;0.80;;
40753;SDS011;26460;42.732;-84.532;2024-03-22T09:28:18;0.73;;;0.70;;
40753;SDS011;26460;42.732;-84.532;2024-03-22T09:30:45;1.27;;;0.90;;
40753;SDS011;26460;42.732;-84.532;2024-03-22T09:33:13;1.00;;;0.90;;
40753;SDS011;26460;42.732;-84.532;2024-03-22T09:35:40;0.90;;;0.77;;
40753;SDS011;26460;42.732;-84.532;2024-03-22T09:38:06;1.10;;;0.70;;
40753;SDS011;26460;42.732;-84.532;2024-03-22T09:40:33;0.90;;;0.90;;
40753;SDS011;26460;42.732;-84.532;2024-03-22T09:43:05;0.98;;;0.73;;
40753;SDS011;26460;42.732;-84.532;2024-03-22T09:45:33;0.80;;;0.77;;
40753;SDS011;26460;42.732;-84.532;2024-03-22T09:48:00;1.10;;;0.70;;
40753;SDS011;26460;42.732;-84.532;2024-03-22T09:50:28;0.85;;;0.65;;
40753;SDS011;26460;42.732;-84.532;2024-03-22T09:52:55;1.08;;;0.80;;
40753;SDS011;26460;42.732;-84.532;2024-03-22T09:55:23;0.80;;;0.77;;
40753;SDS011;26460;42.732;-84.532;2024-03-22T09:57:50;1.08;;;0.80;;
40753;SDS011;26460;42.732;-84.532;2024-03-22T10:02:48;1.95;;;0.80;;
40753;SDS011;26460;42.732;-84.532;2024-03-22T10:05:15;1.15;;;0.80;;
40753;SDS011;26460;42.732;-84.532;2024-03-22T10:07:43;1.10;;;0.88;;
40753;SDS011;26460;42.732;-84.532;2024-03-22T10:10:10;1.27;;;0.85;;
40753;SDS011;26460;42.732;-84.532;2024-03-22T10:12:37;1.20;;;0.70;;
40753;SDS011;26460;42.732;-84.532;2024-03-22T10:15:05;1.40;;;0.98;;
40753;SDS011;26460;42.732;-84.532;2024-03-22T10:17:35;1.10;;;0.57;;
40753;SDS011;26460;42.732;-84.532;2024-03-22T10:20:02;1.63;;;0.80;;
40753;SDS011;26460;42.732;-84.532;2024-03-22T10:22:29;0.80;;;0.80;;
40753;SDS011;26460;42.732;-84.532;2024-03-22T10:24:56;1.02;;;0.90;;
40753;SDS011;26460;42.732;-84.532;2024-03-22T10:27:26;0.63;;;0.63;;
40753;SDS011;26460;42.732;-84.532;2024-03-22T10:29:54;0.90;;;0.80;;
40753;SDS011;26460;42.732;-84.532;2024-03-22T10:32:22;4.32;;;0.80;;
40753;SDS011;26460;42.732;-84.532;2024-03-22T10:34:50;1.02;;;0.82;;
40753;SDS011;26460;42.732;-84.532;2024-03-22T10:37:16;0.90;;;0.88;;
40753;SDS011;26460;42.732;-84.532;2024-03-22T10:39:43;1.00;;;0.70;;
40753;SDS011;26460;42.732;-84.532;2024-03-22T10:42:11;1.20;;;0.95;;
40753;SDS011;26460;42.732;-84.532;2024-03-22T10:44:38;0.80;;;0.80;;
40753;SDS011;26460;42.732;-84.532;2024-03-22T10:47:05;1.45;;;0.85;;
40753;SDS011;26460;42.732;-84.532;2024-03-22T10:49:36;1.85;;;1.08;;
40753;SDS011;26460;42.732;-84.532;2024-03-22T10:52:03;1.15;;;1.00;;
40753;SDS011;26460;42.732;-84.532;2024-03-22T10:57:11;1.27;;;1.00;;
40753;SDS011;26460;42.732;-84.532;2024-03-22T10:59:43;0.82;;;0.82;;
40753;SDS011;26460;42.732;-84.532;2024-03-22T11:02:11;1.65;;;0.90;;
40753;SDS011;26460;42.732;-84.532;2024-03-22T11:04:39;1.17;;;1.00;;
40753;SDS011;26460;42.732;-84.532;2024-03-22T11:07:05;1.63;;;1.15;;
40753;SDS011;26460;42.732;-84.532;2024-03-22T11:09:33;1.98;;;1.00;;
40753;SDS011;26460;42.732;-84.532;2024-03-22T11:12:00;2.60;;;0.93;;
40753;SDS011;26460;42.732;-84.532;2024-03-22T11:14:29;1.08;;;0.95;;
40753;SDS011;26460;42.732;-84.532;2024-03-22T11:16:56;1.25;;;0.98;;
40753;SDS011;26460;42.732;-84.532;2024-03-22T11:19:22;2.83;;;1.10;;
40753;SDS011;26460;42.732;-84.532;2024-03-22T11:21:49;1.85;;;1.20;;
40753;SDS011;26460;42.732;-84.532;2024-03-22T11:24:16;2.22;;;1.30;;
40753;SDS011;26460;42.732;-84.532;2024-03-22T11:26:42;2.45;;;1.10;;
40753;SDS011;26460;42.732;-84.532;2024-03-22T11:29:10;3.13;;;1.17;;
40753;SDS011;26460;42.732;-84.532;2024-03-22T11:31:36;1.73;;;1.00;;
40753;SDS011;26460;42.732;-84.532;2024-03-22T11:34:03;1.58;;;1.23;;
40753;SDS011;26460;42.732;-84.532;2024-03-22T11:36:29;3.35;;;1.30;;
40753;SDS011;26460;42.732;-84.532;2024-03-22T11:38:56;1.50;;;1.40;;
40753;SDS011;26460;42.732;-84.532;2024-03-22T11:41:26;2.92;;;1.25;;
40753;SDS011;26460;42.732;-84.532;2024-03-22T11:43:55;3.55;;;1.33;;
40753;SDS011;26460;42.732;-84.532;2024-03-22T11:46:25;1.92;;;1.10;;
40753;SDS011;26460;42.732;-84.532;2024-03-22T11:48:54;3.65;;;1.30;;
40753;SDS011;26460;42.732;-84.532;2024-03-22T11:51:22;2.45;;;1.27;;
40753;SDS011;26460;42.732;-84.532;2024-03-22T11:53:52;1.75;;;1.02;;
40753;SDS011;26460;42.732;-84.532;2024-03-22T11:56:21;1.50;;;1.02;;
40753;SDS011;26460;42.732;-84.532;2024-03-22T11:58:48;1.15;;;1.00;;
40753;SDS011;26460;42.732;-84.532;2024-03-22T12:01:23;2.10;;;1.00;;
40753;SDS011;26460;42.732;-84.532;2024-03-22T12:03:49;2.28;;;1.00;;
40753;SDS011;26460;42.732;-84.532;2024-03-22T12:06:16;2.17;;;0.88;;
40753;SDS011;26460;42.732;-84.532;2024-03-22T12:08:43;1.17;;;1.05;;
40753;SDS011;26460;42.732;-84.532;2024-03-22T12:11:10;2.22;;;1.10;;
40753;SDS011;26460;42.732;-84.532;2024-03-22T12:13:40;2.92;;;1.15;;
40753;SDS011;26460;42.732;-84.532;2024-03-22T12:16:06;1.48;;;1.17;;
40753;SDS011;26460;42.732;-84.532;2024-03-22T12:18:33;1.33;;;1.00;;
40753;SDS011;26460;42.732;-84.532;2024-03-22T12:21:00;1.60;;;1.00;;
40753;SDS011;26460;42.732;-84.532;2024-03-22T12:23:27;1.67;;;1.30;;
40753;SDS011;26460;42.732;-84.532;2024-03-22T12:25:54;4.30;;;1.08;;
40753;SDS011;26460;42.732;-84.532;2024-03-22T12:28:21;1.55;;;1.02;;
40753;SDS011;26460;42.732;-84.532;2024-03-22T12:30:49;2.70;;;0.90;;
40753;SDS011;26460;42.732;-84.532;2024-03-22T12:33:16;2.25;;;1.10;;
40753;SDS011;26460;42.732;-84.532;2024-03-22T12:35:43;0.90;;;0.90;;
40753;SDS011;26460;42.732;-84.532;2024-03-22T12:38:10;1.33;;;1.15;;
40753;SDS011;26460;42.732;-84.532;2024-03-22T12:40:39;1.63;;;0.88;;
40753;SDS011;26460;42.732;-84.532;2024-03-22T12:43:06;1.02;;;0.93;;
40753;SDS011;26460;42.732;-84.532;2024-03-22T12:45:34;0.97;;;0.80;;
40753;SDS011;26460;42.732;-84.532;2024-03-22T12:48:01;2.72;;;0.90;;
40753;SDS011;26460;42.732;-84.532;2024-03-22T12:50:28;1.20;;;0.85;;
40753;SDS011;26460;42.732;-84.532;2024-03-22T12:52:54;1.08;;;0.98;;
40753;SDS011;26460;42.732;-84.532;2024-03-22T12:55:21;1.58;;;1.20;;
40753;SDS011;26460;42.732;-84.532;2024-03-22T12:57:47;1.83;;;0.82;;
40753;SDS011;26460;42.732;-84.532;2024-03-22T13:00:14;1.20;;;0.85;;
40753;SDS011;26460;42.732;-84.532;2024-03-22T13:02:44;0.82;;;0.82;;
40753;SDS011;26460;42.732;-84.532;2024-03-22T13:05:12;1.02;;;0.68;;
40753;SDS011;26460;42.732;-84.532;2024-03-22T13:07:39;1.33;;;0.75;;
40753;SDS011;26460;42.732;-84.532;2024-03-22T13:10:05;1.40;;;0.68;;
40753;SDS011;26460;42.732;-84.532;2024-03-22T13:12:33;1.63;;;1.00;;
40753;SDS011;26460;42.732;-84.532;2024-03-22T13:15:03;1.10;;;0.70;;
40753;SDS011;26460;42.732;-84.532;2024-03-22T13:17:30;1.35;;;0.80;;
40753;SDS011;26460;42.732;-84.532;2024-03-22T13:19:57;1.27;;;0.70;;
40753;SDS011;26460;42.732;-84.532;2024-03-22T13:22:23;0.90;;;0.70;;
40753;SDS011;26460;42.732;-84.532;2024-03-22T13:24:50;1.10;;;0.80;;
40753;SDS011;26460;42.732;-84.532;2024-03-22T13:27:17;2.20;;;1.08;;
40753;SDS011;26460;42.732;-84.532;2024-03-22T13:29:48;1.30;;;0.82;;
40753;SDS011;26460;42.732;-84.532;2024-03-22T13:32:14;0.70;;;0.60;;
40753;SDS011;26460;42.732;-84.532;2024-03-22T13:34:41;0.85;;;0.80;;
40753;SDS011;26460;42.732;-84.532;2024-03-22T13:37:08;0.70;;;0.60;;
40753;SDS011;26460;42.732;-84.532;2024-03-22T13:39:35;1.20;;;0.70;;
40753;SDS011;26460;42.732;-84.532;2024-03-22T13:42:02;0.95;;;0.50;;
40753;SDS011;26460;42.732;-84.532;2024-03-22T13:44:28;0.82;;;0.70;;
40753;SDS011;26460;42.732;-84.532;2024-03-22T13:46:57;1.67;;;0.70;;
40753;SDS011;26460;42.732;-84.532;2024-03-22T13:49:24;0.70;;;0.55;;
40753;SDS011;26460;42.732;-84.532;2024-03-22T13:51:50;1.45;;;0.65;;
40753;SDS011;26460;42.732;-84.532;2024-03-22T13:54:17;0.68;;;0.50;;
40753;SDS011;26460;42.732;-84.532;2024-03-22T13:56:44;0.90;;;0.70;;
40753;SDS011;26460;42.732;-84.532;2024-03-22T13:59:10;0.95;;;0.73;;
40753;SDS011;26460;42.732;-84.532;2024-03-22T14:01:39;0.60;;;0.60;;
40753;SDS011;26460;42.732;-84.532;2024-03-22T14:04:07;0.70;;;0.70;;
40753;SDS011;26460;42.732;-84.532;2024-03-22T14:06:37;0.60;;;0.60;;
40753;SDS011;26460;42.732;-84.532;2024-03-22T14:09:04;1.23;;;0.80;;
40753;SDS011;26460;42.732;-84.532;2024-03-22T14:11:31;1.00;;;0.77;;
40753;SDS011;26460;42.732;-84.532;2024-03-22T14:13:57;0.85;;;0.82;;
40753;SDS011;26460;42.732;-84.532;2024-03-22T14:16:24;1.67;;;0.98;;
40753;SDS011;26460;42.732;-84.532;2024-03-22T14:18:51;4.45;;;1.33;;
40753;SDS011;26460;42.732;-84.532;2024-03-22T14:21:18;2.50;;;1.60;;
40753;SDS011;26460;42.732;-84.532;2024-03-22T14:23:46;2.45;;;1.42;;